Estherville, Iowa
Current Conditions -  °F | °C
As of 5:52 AM on Monday 26 Jan 2015 (Local Time) from KEST Reporting Station
Overcast Overcast  
Wind Chill: 19°   Ceiling: 9500
Heat Index: 32°   Visibility: 10mi
Dew Point: 30°   Wind: 22mph
Humidity: 92%   Direction: 210°SSW
Pressure: 29.75"   Gusts: NA
Location:  43.4°N, 94.84°W
Report Text: KEST 261152Z AUTO 21019KT 10SM FEW080 BKN095 OVC110 00/M01 A2975 RMK AO2 SLP087 T00001011 10000 21017 58039
Loading
Personal Weather Stations






























Interactive Weather Map New forecast layout! Learn more

10-Day Weather Forecast

Advertisements
Track Severe Weather on mobile